KDTL Airport (Detroit Lakes-Wething Field) Information

FAA: DTL - ICAO: KDTL

KDTL Airport Location

State Minnesota
County Becker
City Detroit Lakes
KDTL Airport is 2 miles west of Detroit Lakes, MN.
Latitude 46-49-30.5000N
Longitude 095-53-07.8000W
Elevation 1,397ft

KDTL Airport METARs

METAR KDTL 020215Z AUTO 00000KT 10SM CLR M15/M16 A2997 RMK AO2
Altimeter 29.97"
Temperature -15.0°C (5.0°F)
Wind 0° at 0KT
Clouds Skies are clear.
Visibility 10.0mi
Time observed: 2023-02-02T02:15:00Z

KDTL Airport Details

Status Operational
Activation December 1944
Ownership Public
Usage Public
Chart TWIN CITIES
ATC on-site No
Beacon schedule sunset-sunrise
Beacon color clear green

KDTL Airport Contacts

Owner CITY OF DETROIT LAKES
Owner address 1025 ROOSEVELT AVE, BOX 647, DETROIT LAKES, MN 56501
Owner phone 218-847-5658
Manager DALE BURGESS
Manager address 255 WEST STARK ROAD, CLOQUET, MN 55720
Manager phone 218-879-6559

KDTL Airport (Detroit Lakes-Wething Field) Radio Frequencies

KDTL (Airport) Radio Frequencies

UNICOM 122.8
Common traffic advisory frequency (CTAF) 122.8